Time;durP1;ratioP1;P1;durP2;ratioP2;P2;SDS_P1;SDS_P2;PMS_P1;PMS_P2;Temp;Humidity;BMP_temperature;BMP_pressure;BME280_temperature;BME280_humidity;BME280_pressure;Samples;Min_cycle;Max_cycle;Signal;HPM_P1;HPM_P2
2022/06/29 00:02:43;;;;;;;14.77;8.90;;;;;;;;;;10430911;28;20056;-77
2022/06/29 00:07:46;;;;;;;8.98;5.38;;;;;;;;;;10428262;28;20501;-76
2022/06/29 00:12:49;;;;;;;;;;;;;;;;;;10422809;28;20037;-78
2022/06/29 00:17:53;;;;;;;9.02;4.78;;;;;;;;;;10437947;28;19928;-74
2022/06/29 00:22:56;;;;;;;11.65;6.43;;;;;;;;;;10436667;28;20037;-75
2022/06/29 00:27:59;;;;;;;14.55;8.25;;;;;;;;;;10413234;28;20480;-76
2022/06/29 00:33:03;;;;;;;16.93;9.20;;;;;;;;;;10438631;28;20045;-76
2022/06/29 00:38:06;;;;;;;16.70;8.70;;;;;;;;;;10411335;28;20045;-77
2022/06/29 00:43:09;;;;;;;18.75;9.63;;;;;;;;;;10419216;28;20061;-77
2022/06/29 00:48:13;;;;;;;16.95;8.52;;;;;;;;;;10424943;28;20040;-77
2022/06/29 00:53:17;;;;;;;10.90;5.03;;;;;;;;;;10437455;28;20033;-76
2022/06/29 00:58:21;;;;;;;13.65;6.63;;;;;;;;;;10431657;28;20072;-78
2022/06/29 01:03:26;;;;;;;14.52;8.07;;;;;;;;;;10429952;28;20040;-78
2022/06/29 01:08:29;;;;;;;14.93;7.45;;;;;;;;;;10442655;28;20045;-77
2022/06/29 01:13:31;;;;;;;14.10;7.43;;;;;;;;;;10422907;28;20037;-76
2022/06/29 01:18:38;;;;;;;10.80;6.07;;;;;;;;;;10436154;28;20410;-76
2022/06/29 01:23:43;;;;;;;12.20;6.65;;;;;;;;;;10416031;28;20152;-76
2022/06/29 01:28:48;;;;;;;14.15;6.85;;;;;;;;;;10432976;28;20044;-76
2022/06/29 01:34:01;;;;;;;13.90;7.32;;;;;;;;;;10420204;28;20123;-76
2022/06/29 01:39:09;;;;;;;12.40;6.45;;;;;;;;;;10435718;28;20082;-76
2022/06/29 01:44:15;;;;;;;15.43;7.97;;;;;;;;;;10410150;28;20041;-77
2022/06/29 01:49:18;;;;;;;17.90;9.63;;;;;;;;;;10423873;28;20033;-75
2022/06/29 01:54:22;;;;;;;;;;;;;;;;;;10422499;28;20036;-77
2022/06/29 01:59:26;;;;;;;15.90;7.57;;;;;;;;;;10436232;28;19925;-76
2022/06/29 02:04:29;;;;;;;21.33;9.93;;;;;;;;;;10421227;28;20048;-77
2022/06/29 02:09:32;;;;;;;17.48;9.75;;;;;;;;;;10435369;28;20041;-75
2022/06/29 02:14:36;;;;;;;16.97;9.27;;;;;;;;;;10412162;28;20090;-77
2022/06/29 02:19:39;;;;;;;19.65;9.10;;;;;;;;;;10413313;28;20041;-76
2022/06/29 02:24:41;;;;;;;15.07;6.97;;;;;;;;;;10434789;28;20529;-76
2022/06/29 02:29:45;;;;;;;17.08;8.48;;;;;;;;;;10428366;28;20033;-76
2022/06/29 02:34:48;;;;;;;13.68;5.90;;;;;;;;;;10417683;28;20098;-75
2022/06/29 02:39:51;;;;;;;11.90;5.77;;;;;;;;;;10417517;28;20127;-76
2022/06/29 02:44:55;;;;;;;14.38;7.07;;;;;;;;;;10439509;28;20037;-76
2022/06/29 02:49:58;;;;;;;12.93;6.80;;;;;;;;;;10428008;28;20516;-77
2022/06/29 02:55:01;;;;;;;16.48;8.15;;;;;;;;;;10425588;28;20033;-75
2022/06/29 03:00:10;;;;;;;15.60;6.72;;;;;;;;;;10429208;28;20060;-77
2022/06/29 03:05:12;;;;;;;13.75;7.32;;;;;;;;;;10426334;28;20040;-74
2022/06/29 03:10:16;;;;;;;16.25;7.63;;;;;;;;;;10427242;28;20036;-77
2022/06/29 03:15:21;;;;;;;16.30;7.20;;;;;;;;;;10424785;28;20068;-75
2022/06/29 03:20:24;;;;;;;14.32;6.57;;;;;;;;;;10418876;28;20055;-75
2022/06/29 03:25:28;;;;;;;11.25;6.15;;;;;;;;;;10421928;28;20152;-76
2022/06/29 03:30:33;;;;;;;12.90;6.25;;;;;;;;;;10436305;28;20187;-76
2022/06/29 03:35:36;;;;;;;13.10;6.50;;;;;;;;;;10445406;28;20056;-77
2022/06/29 03:40:38;;;;;;;12.00;5.82;;;;;;;;;;10440042;28;20107;-76
2022/06/29 03:45:42;;;;;;;;;;;;;;;;;;10443087;28;20138;-76
2022/06/29 03:50:46;;;;;;;10.70;5.47;;;;;;;;;;10418279;28;19971;-77
2022/06/29 03:55:50;;;;;;;11.05;5.18;;;;;;;;;;10420928;28;20057;-75
2022/06/29 04:00:54;;;;;;;9.57;4.72;;;;;;;;;;10420603;28;20110;-76
2022/06/29 04:06:00;;;;;;;7.10;4.00;;;;;;;;;;10414096;28;20106;-72
2022/06/29 04:11:02;;;;;;;9.25;5.13;;;;;;;;;;10433306;28;20041;-72
2022/06/29 04:16:12;;;;;;;9.60;4.60;;;;;;;;;;10431016;28;20401;-71
2022/06/29 04:21:16;;;;;;;9.90;4.78;;;;;;;;;;10430258;28;20139;-71
2022/06/29 04:26:19;;;;;;;8.40;4.60;;;;;;;;;;10439728;28;20068;-71
2022/06/29 04:31:22;;;;;;;9.10;5.28;;;;;;;;;;10434933;28;20037;-71
2022/06/29 04:36:25;;;;;;;;;;;;;;;;;;10433862;28;20038;-71
2022/06/29 04:41:29;;;;;;;13.38;6.45;;;;;;;;;;10440183;28;20821;-71
2022/06/29 04:46:33;;;;;;;7.85;3.92;;;;;;;;;;10436005;28;20037;-71
2022/06/29 04:51:37;;;;;;;8.43;4.45;;;;;;;;;;10434819;28;20404;-73
2022/06/29 04:56:41;;;;;;;10.93;5.28;;;;;;;;;;10432304;28;20168;-72
2022/06/29 05:01:47;;;;;;;5.72;3.25;;;;;;;;;;10404329;28;20042;-73
2022/06/29 05:06:50;;;;;;;12.80;6.82;;;;;;;;;;10424958;28;20049;-71
2022/06/29 05:11:55;;;;;;;11.35;6.07;;;;;;;;;;10430300;28;20051;-71
2022/06/29 05:16:58;;;;;;;10.25;5.43;;;;;;;;;;10430618;28;20131;-73
2022/06/29 05:22:01;;;;;;;10.13;5.03;;;;;;;;;;10433446;28;20053;-72
2022/06/29 05:27:06;;;;;;;10.27;6.20;;;;;;;;;;10429778;28;20477;-71
2022/06/29 05:32:09;;;;;;;13.93;7.45;;;;;;;;;;10429781;28;20041;-71
2022/06/29 05:37:12;;;;;;;13.65;6.03;;;;;;;;;;10428484;28;20044;-73
2022/06/29 05:42:17;;;;;;;13.40;6.30;;;;;;;;;;10433565;28;20117;-72
2022/06/29 05:47:20;;;;;;;8.73;4.88;;;;;;;;;;10426845;28;20274;-71
2022/06/29 05:52:23;;;;;;;10.07;5.82;;;;;;;;;;10408622;28;20065;-72
2022/06/29 05:57:27;;;;;;;7.60;4.32;;;;;;;;;;10425361;28;20033;-72
2022/06/29 06:02:30;;;;;;;13.05;6.50;;;;;;;;;;10421343;28;20033;-72
2022/06/29 06:07:33;;;;;;;12.43;5.93;;;;;;;;;;10433703;28;20385;-72
2022/06/29 06:12:38;;;;;;;11.48;6.75;;;;;;;;;;10414975;28;20448;-78
2022/06/29 06:17:41;;;;;;;11.27;6.35;;;;;;;;;;10431643;28;20087;-78
2022/06/29 06:22:44;;;;;;;12.50;7.65;;;;;;;;;;10436996;28;20549;-76
2022/06/29 06:27:47;;;;;;;;;;;;;;;;;;10440466;28;20091;-77
2022/06/29 06:32:51;;;;;;;17.15;8.77;;;;;;;;;;10415306;28;19951;-75
2022/06/29 06:37:54;;;;;;;17.40;9.10;;;;;;;;;;10435604;28;20037;-76
2022/06/29 06:42:57;;;;;;;14.27;8.30;;;;;;;;;;10412068;28;20067;-77
2022/06/29 06:48:02;;;;;;;13.27;8.07;;;;;;;;;;10416583;28;20063;-76
2022/06/29 06:53:05;;;;;;;15.73;8.43;;;;;;;;;;10420538;28;20083;-78
2022/06/29 06:58:07;;;;;;;15.88;9.07;;;;;;;;;;10429367;28;20532;-77
2022/06/29 07:03:10;;;;;;;;;;;;;;;;;;10424582;28;20094;-76
2022/06/29 07:08:15;;;;;;;13.63;7.40;;;;;;;;;;10440012;28;20495;-79
2022/06/29 07:13:18;;;;;;;15.15;8.60;;;;;;;;;;10432955;28;20128;-79
2022/06/29 07:18:21;;;;;;;19.75;8.85;;;;;;;;;;10421889;28;20121;-77
2022/06/29 07:23:25;;;;;;;13.60;7.82;;;;;;;;;;10437800;28;20377;-80
2022/06/29 07:28:28;;;;;;;16.33;8.48;;;;;;;;;;10423754;28;20072;-76
2022/06/29 07:33:30;;;;;;;16.00;9.30;;;;;;;;;;10419020;28;20485;-79
2022/06/29 07:38:35;;;;;;;15.07;9.05;;;;;;;;;;10440968;28;20037;-77
2022/06/29 07:43:38;;;;;;;15.38;8.82;;;;;;;;;;10441430;28;20087;-76
2022/06/29 07:48:41;;;;;;;13.27;8.23;;;;;;;;;;10435528;28;20037;-78
2022/06/29 07:53:45;;;;;;;16.02;8.30;;;;;;;;;;10432465;28;20043;-76
2022/06/29 07:58:48;;;;;;;13.35;7.93;;;;;;;;;;10417788;28;20079;-78
2022/06/29 08:03:53;;;;;;;;;;;;;;;;;;10415731;28;20079;-77
2022/06/29 08:08:58;;;;;;;12.43;7.45;;;;;;;;;;10415480;28;19956;-77
2022/06/29 08:14:01;;;;;;;13.07;7.65;;;;;;;;;;10415615;28;20706;-77
2022/06/29 08:19:04;;;;;;;;;;;;;;;;;;10440365;28;20071;-78
2022/06/29 08:24:09;;;;;;;14.85;8.48;;;;;;;;;;10440995;28;19976;-79
2022/06/29 08:29:14;;;;;;;15.90;7.63;;;;;;;;;;10447646;28;20045;-77
2022/06/29 08:34:17;;;;;;;17.38;8.25;;;;;;;;;;10452797;28;20032;-78
2022/06/29 08:39:21;;;;;;;;;;;;;;;;;;10426041;28;20102;-77
2022/06/29 08:44:26;;;;;;;14.30;8.48;;;;;;;;;;10441679;28;20066;-78
2022/06/29 08:49:29;;;;;;;15.90;8.65;;;;;;;;;;10444403;28;20103;-78
2022/06/29 08:54:36;;;;;;;14.18;8.52;;;;;;;;;;10442960;28;20041;-77
2022/06/29 08:59:41;;;;;;;12.23;7.68;;;;;;;;;;10424133;28;20047;-75
2022/06/29 09:05:03;;;;;;;15.73;8.10;;;;;;;;;;10438314;28;20064;-79
2022/06/29 09:10:07;;;;;;;11.80;7.45;;;;;;;;;;10434600;28;20037;-76
2022/06/29 09:15:13;;;;;;;13.00;7.03;;;;;;;;;;10451031;28;20032;-79
2022/06/29 09:20:15;;;;;;;16.83;9.75;;;;;;;;;;10455549;28;20044;-79
2022/06/29 09:25:39;;;;;;;10.45;6.75;;;;;;;;;;10425472;28;20060;-77
2022/06/29 09:30:43;;;;;;;8.88;6.35;;;;;;;;;;10440169;28;20420;-76
2022/06/29 09:36:03;;;;;;;12.07;6.30;;;;;;;;;;10420703;28;20041;-79
2022/06/29 09:41:07;;;;;;;10.63;6.97;;;;;;;;;;10422745;28;20040;-78
2022/06/29 09:46:12;;;;;;;10.13;5.65;;;;;;;;;;10422731;28;20048;-76
2022/06/29 09:51:33;;;;;;;9.50;5.85;;;;;;;;;;10442992;28;20439;-77
2022/06/29 09:56:37;;;;;;;10.88;6.47;;;;;;;;;;10432778;28;20593;-77
2022/06/29 10:07:04;;;;;;;10.38;5.97;;;;;;;;;;10437184;28;20041;-76
2022/06/29 10:17:47;;;;;;;10.00;6.47;;;;;;;;;;10372746;28;20053;-79
2022/06/29 10:22:49;;;;;;;13.20;6.80;;;;;;;;;;10418037;28;20057;-78
2022/06/29 10:28:08;;;;;;;10.32;6.10;;;;;;;;;;10435126;28;20044;-77
2022/06/29 10:33:30;;;;;;;12.63;6.30;;;;;;;;;;10417021;28;20101;-77
2022/06/29 10:38:57;;;;;;;7.93;5.65;;;;;;;;;;10442174;28;20071;-77
2022/06/29 10:49:23;;;;;;;10.45;6.65;;;;;;;;;;10423102;28;20123;-78
2022/06/29 10:54:28;;;;;;;8.52;6.03;;;;;;;;;;10425068;28;20497;-78
2022/06/29 10:59:31;;;;;;;10.27;6.43;;;;;;;;;;10440785;28;20052;-76
2022/06/29 11:04:34;;;;;;;9.23;6.55;;;;;;;;;;10439942;28;20040;-76
2022/06/29 11:20:45;;;;;;;8.38;5.97;;;;;;;;;;10268802;28;20718;-77
2022/06/29 11:25:54;;;;;;;9.23;6.45;;;;;;;;;;10397951;28;20053;-77
2022/06/29 11:31:00;;;;;;;10.00;5.93;;;;;;;;;;10430529;28;20121;-77
2022/06/29 11:36:05;;;;;;;7.53;5.43;;;;;;;;;;10414576;28;20037;-77
2022/06/29 11:41:14;;;;;;;7.00;5.28;;;;;;;;;;10430891;28;20517;-75
2022/06/29 11:46:29;;;;;;;7.13;5.10;;;;;;;;;;10414806;28;20044;-76
2022/06/29 11:51:32;;;;;;;6.85;4.80;;;;;;;;;;10418002;28;20044;-76
2022/06/29 11:56:36;;;;;;;6.85;4.88;;;;;;;;;;10431288;28;20505;-78
2022/06/29 12:01:50;;;;;;;6.32;5.47;;;;;;;;;;10439303;28;20049;-77
2022/06/29 12:07:01;;;;;;;6.63;5.18;;;;;;;;;;10445806;28;20032;-77
2022/06/29 12:12:07;;;;;;;7.90;5.15;;;;;;;;;;10451145;28;20037;-79
2022/06/29 12:17:11;;;;;;;7.10;5.18;;;;;;;;;;10425453;28;20049;-78
2022/06/29 12:22:14;;;;;;;7.18;5.28;;;;;;;;;;10443798;28;20029;-77
2022/06/29 12:27:18;;;;;;;8.88;5.07;;;;;;;;;;10434969;28;20036;-76
2022/06/29 12:32:21;;;;;;;7.68;5.10;;;;;;;;;;10435898;28;20539;-77
2022/06/29 12:37:23;;;;;;;6.03;4.50;;;;;;;;;;10440662;28;20790;-77
2022/06/29 12:42:28;;;;;;;6.85;4.82;;;;;;;;;;10426195;28;20503;-78
2022/06/29 12:47:31;;;;;;;10.10;5.88;;;;;;;;;;10433995;28;20077;-78
2022/06/29 12:52:34;;;;;;;6.70;4.38;;;;;;;;;;10449590;28;20048;-76
2022/06/29 12:57:38;;;;;;;5.05;4.43;;;;;;;;;;10431176;28;20036;-78
2022/06/29 13:02:41;;;;;;;6.47;4.20;;;;;;;;;;10433505;28;20036;-80
2022/06/29 13:07:44;;;;;;;6.10;4.20;;;;;;;;;;10452132;28;20120;-77
2022/06/29 13:12:52;;;;;;;5.35;4.07;;;;;;;;;;10440602;28;20029;-76
2022/06/29 13:17:55;;;;;;;6.35;4.10;;;;;;;;;;10428436;28;20041;-77
2022/06/29 13:22:58;;;;;;;6.80;4.30;;;;;;;;;;10436550;28;20037;-78
2022/06/29 13:28:02;;;;;;;9.60;5.15;;;;;;;;;;10435305;28;20063;-76
2022/06/29 13:33:05;;;;;;;6.93;4.63;;;;;;;;;;10428547;28;20037;-76
2022/06/29 13:38:07;;;;;;;7.75;4.50;;;;;;;;;;10451013;28;20493;-78
2022/06/29 13:43:11;;;;;;;5.60;3.90;;;;;;;;;;10428764;28;20665;-78
2022/06/29 13:48:14;;;;;;;5.18;4.15;;;;;;;;;;10453785;28;20366;-78
2022/06/29 13:53:17;;;;;;;7.82;4.10;;;;;;;;;;10447352;28;20529;-76
2022/06/29 13:58:22;;;;;;;7.07;4.32;;;;;;;;;;10428996;28;20056;-78
2022/06/29 14:03:24;;;;;;;7.40;4.10;;;;;;;;;;10445890;28;20040;-76
2022/06/29 14:08:27;;;;;;;7.22;4.00;;;;;;;;;;10425364;28;20060;-76
2022/06/29 14:13:51;;;;;;;9.85;6.45;;;;;;;;;;10439046;28;20113;-77
2022/06/29 14:18:54;;;;;;;6.55;4.05;;;;;;;;;;10443816;28;20033;-77
2022/06/29 14:23:57;;;;;;;6.43;4.00;;;;;;;;;;10425126;28;20129;-77
2022/06/29 14:29:01;;;;;;;8.98;4.50;;;;;;;;;;10446330;28;20033;-77
2022/06/29 14:34:04;;;;;;;8.63;4.63;;;;;;;;;;10439092;28;20665;-75
2022/06/29 14:39:07;;;;;;;7.40;4.65;;;;;;;;;;10444693;28;20451;-76
2022/06/29 14:44:12;;;;;;;8.25;4.45;;;;;;;;;;10436518;28;20036;-75
2022/06/29 14:49:15;;;;;;;7.97;5.05;;;;;;;;;;10424890;28;20076;-77
2022/06/29 14:54:17;;;;;;;6.45;4.20;;;;;;;;;;10418729;28;20060;-78
2022/06/29 14:59:22;;;;;;;8.25;4.93;;;;;;;;;;10418749;28;20041;-76
2022/06/29 15:04:25;;;;;;;7.78;4.82;;;;;;;;;;10422000;28;20059;-75
2022/06/29 15:09:30;;;;;;;4.93;3.60;;;;;;;;;;10425105;28;20063;-77
2022/06/29 15:14:37;;;;;;;4.03;3.40;;;;;;;;;;10418544;28;20092;-77
2022/06/29 15:19:40;;;;;;;8.40;4.00;;;;;;;;;;10424126;28;20044;-77
2022/06/29 15:24:42;;;;;;;5.20;3.90;;;;;;;;;;10430334;28;20104;-77
2022/06/29 15:29:47;;;;;;;6.35;3.65;;;;;;;;;;10419669;28;20131;-78
2022/06/29 15:40:11;;;;;;;4.45;3.70;;;;;;;;;;10425018;28;20048;-78
2022/06/29 15:45:15;;;;;;;4.18;3.22;;;;;;;;;;10441314;28;20044;-76
2022/06/29 15:50:18;;;;;;;6.75;3.75;;;;;;;;;;10423108;28;20409;-77
2022/06/29 15:55:36;;;;;;;5.00;3.45;;;;;;;;;;10437399;28;20033;-76
2022/06/29 16:00:40;;;;;;;4.90;3.33;;;;;;;;;;10417201;28;20763;-76
2022/06/29 16:05:44;;;;;;;9.65;5.60;;;;;;;;;;10439351;28;20378;-79
2022/06/29 16:10:48;;;;;;;10.38;4.57;;;;;;;;;;10426715;28;20043;-76
2022/06/29 16:15:53;;;;;;;6.72;4.10;;;;;;;;;;10440356;28;20033;-77
2022/06/29 16:20:55;;;;;;;7.43;4.55;;;;;;;;;;10417938;28;20038;-77
2022/06/29 16:25:58;;;;;;;10.65;5.43;;;;;;;;;;10423845;28;20041;-78
2022/06/29 16:31:02;;;;;;;9.55;4.93;;;;;;;;;;10424510;28;20497;-76
2022/06/29 16:36:05;;;;;;;10.65;5.72;;;;;;;;;;10431903;28;20033;-78
2022/06/29 16:41:08;;;;;;;10.10;5.28;;;;;;;;;;10440812;28;20033;-76
2022/06/29 16:46:12;;;;;;;10.98;6.10;;;;;;;;;;10435597;28;20060;-79
2022/06/29 16:51:16;;;;;;;9.65;5.75;;;;;;;;;;10440362;28;20029;-77
2022/06/29 16:56:19;;;;;;;7.45;4.88;;;;;;;;;;10418929;28;20045;-77
2022/06/29 17:01:23;;;;;;;10.18;5.97;;;;;;;;;;10435166;28;20040;-76
2022/06/29 17:06:26;;;;;;;6.18;4.40;;;;;;;;;;10426175;28;20028;-76
2022/06/29 17:11:28;;;;;;;;;;;;;;;;;;10412016;28;20445;-77
2022/06/29 17:16:34;;;;;;;7.93;4.53;;;;;;;;;;10440210;28;20011;-76
2022/06/29 17:21:37;;;;;;;8.77;3.70;;;;;;;;;;10422870;28;20075;-78
2022/06/29 17:26:41;;;;;;;7.18;3.63;;;;;;;;;;10431254;28;20044;-79
2022/06/29 17:31:48;;;;;;;9.02;4.18;;;;;;;;;;10439826;28;20044;-76
2022/06/29 17:36:51;;;;;;;6.65;3.83;;;;;;;;;;10437062;28;20029;-77
2022/06/29 17:41:54;;;;;;;;;;;;;;;;;;10438050;28;20037;-77
2022/06/29 17:46:58;;;;;;;8.57;4.45;;;;;;;;;;10431388;28;19947;-77
2022/06/29 17:52:03;;;;;;;5.88;3.78;;;;;;;;;;10439242;28;20060;-76
2022/06/29 17:57:06;;;;;;;3.78;2.70;;;;;;;;;;10419956;28;20041;-78
2022/06/29 18:02:10;;;;;;;7.70;5.03;;;;;;;;;;10414390;28;20091;-78
2022/06/29 18:07:12;;;;;;;7.70;5.00;;;;;;;;;;10433009;28;20056;-78
2022/06/29 18:12:15;;;;;;;7.93;4.95;;;;;;;;;;10411476;28;20072;-77
2022/06/29 18:17:19;;;;;;;8.25;3.85;;;;;;;;;;10436331;28;20087;-75
2022/06/29 18:22:25;;;;;;;5.80;3.08;;;;;;;;;;10437034;28;20080;-78
2022/06/29 18:27:28;;;;;;;10.10;5.40;;;;;;;;;;10436155;28;20138;-76
2022/06/29 18:32:32;;;;;;;8.07;5.05;;;;;;;;;;10437881;28;20505;-77
2022/06/29 18:37:35;;;;;;;7.32;5.00;;;;;;;;;;10417168;28;20508;-78
2022/06/29 18:42:38;;;;;;;5.88;3.80;;;;;;;;;;10414245;28;20040;-76
2022/06/29 18:47:42;;;;;;;5.15;3.22;;;;;;;;;;10414609;28;20116;-77
2022/06/29 18:52:47;;;;;;;6.30;4.28;;;;;;;;;;10426333;28;20049;-77
2022/06/29 18:57:50;;;;;;;7.97;4.75;;;;;;;;;;10409575;28;20033;-77
2022/06/29 19:02:55;;;;;;;9.95;5.13;;;;;;;;;;10424899;28;20048;-75
2022/06/29 19:07:58;;;;;;;6.35;3.10;;;;;;;;;;10406121;28;20064;-76
2022/06/29 19:13:01;;;;;;;7.43;5.10;;;;;;;;;;10407115;28;20132;-75
2022/06/29 19:18:05;;;;;;;7.22;5.20;;;;;;;;;;10426041;28;20029;-77
2022/06/29 19:23:08;;;;;;;8.27;5.63;;;;;;;;;;10426243;28;20037;-76
2022/06/29 19:28:10;;;;;;;9.70;4.72;;;;;;;;;;10424854;28;20037;-75
2022/06/29 19:33:14;;;;;;;6.85;4.80;;;;;;;;;;10428693;28;20051;-76
2022/06/29 19:38:18;;;;;;;9.02;5.78;;;;;;;;;;10406987;28;20082;-75
2022/06/29 19:43:20;;;;;;;9.88;4.30;;;;;;;;;;10403559;28;20044;-75
2022/06/29 19:48:27;;;;;;;11.57;5.72;;;;;;;;;;10426665;28;20637;-76
2022/06/29 19:53:30;;;;;;;10.27;6.20;;;;;;;;;;10407506;28;20115;-76
2022/06/29 19:58:33;;;;;;;12.50;5.47;;;;;;;;;;10425253;28;20180;-76
2022/06/29 20:03:38;;;;;;;7.32;3.70;;;;;;;;;;10409712;28;20133;-77
2022/06/29 20:08:41;;;;;;;10.25;6.10;;;;;;;;;;10436410;28;20756;-77
2022/06/29 20:13:46;;;;;;;5.90;3.50;;;;;;;;;;10424501;28;20493;-76
2022/06/29 20:18:50;;;;;;;10.52;6.07;;;;;;;;;;10412114;28;20065;-75
2022/06/29 20:23:53;;;;;;;7.20;4.40;;;;;;;;;;10444865;28;20033;-78
2022/06/29 20:28:56;;;;;;;6.88;4.50;;;;;;;;;;10438603;28;20063;-76
2022/06/29 20:34:00;;;;;;;11.18;5.90;;;;;;;;;;10413220;28;20041;-74
2022/06/29 20:39:03;;;;;;;14.65;6.15;;;;;;;;;;10436017;28;20041;-75
2022/06/29 20:49:27;;;;;;;8.32;5.80;;;;;;;;;;10434385;28;20056;-75
2022/06/29 20:54:30;;;;;;;13.15;6.70;;;;;;;;;;10420745;28;20079;-74
2022/06/29 20:59:32;;;;;;;10.25;6.30;;;;;;;;;;10426236;28;20040;-76
2022/06/29 21:04:36;;;;;;;11.57;5.90;;;;;;;;;;10411691;28;20033;-75
2022/06/29 21:09:39;;;;;;;9.13;5.78;;;;;;;;;;10431469;28;20075;-76
2022/06/29 21:14:42;;;;;;;10.77;6.43;;;;;;;;;;10438383;28;20040;-73
2022/06/29 21:19:46;;;;;;;10.68;5.97;;;;;;;;;;10424665;28;20041;-76
2022/06/29 21:24:49;;;;;;;11.40;6.75;;;;;;;;;;10422432;28;20509;-75
2022/06/29 21:29:52;;;;;;;14.45;7.00;;;;;;;;;;10430422;28;20107;-76
2022/06/29 21:34:56;;;;;;;12.95;6.55;;;;;;;;;;10432616;28;20053;-74
2022/06/29 21:39:58;;;;;;;11.55;6.20;;;;;;;;;;10437099;28;20064;-75
2022/06/29 21:45:01;;;;;;;11.80;6.38;;;;;;;;;;10433275;28;20569;-75
2022/06/29 21:55:26;;;;;;;11.43;6.28;;;;;;;;;;10432783;28;20212;-75
2022/06/29 22:00:31;;;;;;;11.40;6.47;;;;;;;;;;10413630;28;20098;-75
2022/06/29 22:05:35;;;;;;;10.00;6.50;;;;;;;;;;10422573;28;20033;-74
2022/06/29 22:10:38;;;;;;;13.50;6.50;;;;;;;;;;10425425;28;20458;-75
2022/06/29 22:15:41;;;;;;;11.60;7.03;;;;;;;;;;10435188;28;20053;-76
2022/06/29 22:20:46;;;;;;;11.38;6.93;;;;;;;;;;10427655;28;20132;-76
2022/06/29 22:25:48;;;;;;;11.23;7.05;;;;;;;;;;10410136;28;20076;-75
2022/06/29 22:30:51;;;;;;;11.48;7.05;;;;;;;;;;10432247;28;20041;-75
2022/06/29 22:35:55;;;;;;;15.55;7.47;;;;;;;;;;10432326;28;20048;-74
2022/06/29 22:40:59;;;;;;;11.45;6.75;;;;;;;;;;10415523;28;20073;-75
2022/06/29 22:46:02;;;;;;;12.07;7.28;;;;;;;;;;10432342;28;20647;-76
2022/06/29 22:51:06;;;;;;;12.60;7.15;;;;;;;;;;10425433;28;20044;-76
2022/06/29 22:56:11;;;;;;;14.15;8.25;;;;;;;;;;10417920;28;20637;-75
2022/06/29 23:01:18;;;;;;;9.70;7.05;;;;;;;;;;10416664;28;20040;-76
2022/06/29 23:06:22;;;;;;;10.80;5.90;;;;;;;;;;10435304;28;20107;-75
2022/06/29 23:16:45;;;;;;;10.27;6.50;;;;;;;;;;10409034;28;20045;-75
2022/06/29 23:21:53;;;;;;;9.60;6.47;;;;;;;;;;10415610;28;20458;-76
2022/06/29 23:26:55;;;;;;;10.27;6.75;;;;;;;;;;10411462;28;20056;-76
2022/06/29 23:31:58;;;;;;;10.73;6.30;;;;;;;;;;10415313;28;20049;-75
2022/06/29 23:37:02;;;;;;;11.33;6.87;;;;;;;;;;10414872;28;20067;-75
2022/06/29 23:42:05;;;;;;;11.90;6.30;;;;;;;;;;10428255;28;20307;-75
2022/06/29 23:47:08;;;;;;;16.83;7.47;;;;;;;;;;10418252;28;20083;-76
2022/06/29 23:52:13;;;;;;;10.52;6.78;;;;;;;;;;10424360;28;20497;-75
2022/06/29 23:57:19;;;;;;;10.65;6.95;;;;;;;;;;10426783;28;20044;-75
